sensor_id;sensor_type;location;lat;lon;timestamp;pressure;altitude;pressure_sealevel;temperature;humidity
60240;BME280;46102;39.012;-7.064;2024-03-29T00:01:48;96895.13;;;9.88;100.00
60240;BME280;46102;39.012;-7.064;2024-03-29T00:03:49;96893.19;;;9.88;100.00
60240;BME280;46102;39.012;-7.064;2024-03-29T00:05:49;96887.19;;;9.83;100.00
60240;BME280;46102;39.012;-7.064;2024-03-29T00:07:50;96888.78;;;9.84;100.00
60240;BME280;46102;39.012;-7.064;2024-03-29T00:09:51;96896.53;;;9.82;100.00
60240;BME280;46102;39.012;-7.064;2024-03-29T00:11:52;96891.78;;;9.78;100.00
60240;BME280;46102;39.012;-7.064;2024-03-29T00:13:52;96892.94;;;9.77;100.00
60240;BME280;46102;39.012;-7.064;2024-03-29T00:15:53;96892.84;;;9.74;100.00
60240;BME280;46102;39.012;-7.064;2024-03-29T00:17:54;96894.50;;;9.78;100.00
60240;BME280;46102;39.012;-7.064;2024-03-29T00:19:55;96899.38;;;9.69;100.00
60240;BME280;46102;39.012;-7.064;2024-03-29T00:21:55;96886.47;;;9.70;100.00
60240;BME280;46102;39.012;-7.064;2024-03-29T00:23:56;96880.19;;;9.69;100.00
60240;BME280;46102;39.012;-7.064;2024-03-29T00:25:57;96863.88;;;9.73;100.00
60240;BME280;46102;39.012;-7.064;2024-03-29T00:27:59;96879.03;;;9.70;100.00
60240;BME280;46102;39.012;-7.064;2024-03-29T00:30:01;96879.94;;;9.74;100.00
60240;BME280;46102;39.012;-7.064;2024-03-29T00:32:01;96864.56;;;9.70;100.00
60240;BME280;46102;39.012;-7.064;2024-03-29T00:34:02;96858.28;;;9.69;100.00
60240;BME280;46102;39.012;-7.064;2024-03-29T00:36:03;96847.44;;;9.73;100.00
60240;BME280;46102;39.012;-7.064;2024-03-29T00:38:04;96841.59;;;9.74;100.00
60240;BME280;46102;39.012;-7.064;2024-03-29T00:40:05;96835.44;;;9.77;100.00
60240;BME280;46102;39.012;-7.064;2024-03-29T00:42:06;96826.41;;;9.77;100.00
60240;BME280;46102;39.012;-7.064;2024-03-29T00:44:09;96837.00;;;9.78;100.00
60240;BME280;46102;39.012;-7.064;2024-03-29T00:46:09;96827.38;;;9.69;100.00
60240;BME280;46102;39.012;-7.064;2024-03-29T00:48:10;96835.16;;;9.67;100.00
60240;BME280;46102;39.012;-7.064;2024-03-29T00:50:11;96834.72;;;9.65;100.00
60240;BME280;46102;39.012;-7.064;2024-03-29T00:52:12;96845.56;;;9.61;100.00
60240;BME280;46102;39.012;-7.064;2024-03-29T00:54:12;96861.19;;;9.61;100.00
60240;BME280;46102;39.012;-7.064;2024-03-29T00:56:15;96866.59;;;9.57;100.00
60240;BME280;46102;39.012;-7.064;2024-03-29T00:58:16;96872.69;;;9.50;100.00
60240;BME280;46102;39.012;-7.064;2024-03-29T01:00:17;96866.16;;;9.55;100.00
60240;BME280;46102;39.012;-7.064;2024-03-29T01:02:18;96871.53;;;9.51;100.00
60240;BME280;46102;39.012;-7.064;2024-03-29T01:04:18;96868.78;;;9.51;100.00
60240;BME280;46102;39.012;-7.064;2024-03-29T01:06:20;96865.25;;;9.51;100.00
60240;BME280;46102;39.012;-7.064;2024-03-29T01:08:20;96877.34;;;9.50;100.00
60240;BME280;46102;39.012;-7.064;2024-03-29T01:10:21;96880.88;;;9.50;100.00
60240;BME280;46102;39.012;-7.064;2024-03-29T01:12:23;96885.31;;;9.55;100.00
60240;BME280;46102;39.012;-7.064;2024-03-29T01:14:23;96886.09;;;9.55;100.00
60240;BME280;46102;39.012;-7.064;2024-03-29T01:16:24;96887.16;;;9.51;100.00
60240;BME280;46102;39.012;-7.064;2024-03-29T01:18:25;96894.91;;;9.49;100.00
60240;BME280;46102;39.012;-7.064;2024-03-29T01:20:26;96888.09;;;9.43;100.00
60240;BME280;46102;39.012;-7.064;2024-03-29T01:22:26;96882.97;;;9.41;100.00
60240;BME280;46102;39.012;-7.064;2024-03-29T01:24:27;96863.00;;;9.41;100.00
60240;BME280;46102;39.012;-7.064;2024-03-29T01:26:28;96837.84;;;9.35;100.00
60240;BME280;46102;39.012;-7.064;2024-03-29T01:28:29;96825.84;;;9.40;100.00
60240;BME280;46102;39.012;-7.064;2024-03-29T01:30:29;96825.16;;;9.43;100.00
60240;BME280;46102;39.012;-7.064;2024-03-29T01:32:30;96817.72;;;9.43;100.00
60240;BME280;46102;39.012;-7.064;2024-03-29T01:34:31;96822.50;;;9.46;100.00
60240;BME280;46102;39.012;-7.064;2024-03-29T01:36:32;96825.78;;;9.52;100.00
60240;BME280;46102;39.012;-7.064;2024-03-29T01:38:33;96834.09;;;9.55;100.00
60240;BME280;46102;39.012;-7.064;2024-03-29T01:40:34;96822.13;;;9.48;100.00
60240;BME280;46102;39.012;-7.064;2024-03-29T01:42:35;96826.47;;;9.33;100.00
60240;BME280;46102;39.012;-7.064;2024-03-29T01:44:36;96811.09;;;9.28;100.00
60240;BME280;46102;39.012;-7.064;2024-03-29T01:46:37;96812.03;;;9.20;100.00
60240;BME280;46102;39.012;-7.064;2024-03-29T01:48:38;96809.84;;;9.10;100.00
60240;BME280;46102;39.012;-7.064;2024-03-29T01:50:39;96824.38;;;9.14;100.00
60240;BME280;46102;39.012;-7.064;2024-03-29T01:52:40;96823.00;;;9.20;100.00
60240;BME280;46102;39.012;-7.064;2024-03-29T01:54:42;96816.13;;;9.26;100.00
60240;BME280;46102;39.012;-7.064;2024-03-29T01:56:44;96816.31;;;9.33;100.00
60240;BME280;46102;39.012;-7.064;2024-03-29T01:58:45;96808.28;;;9.41;100.00
60240;BME280;46102;39.012;-7.064;2024-03-29T02:00:55;96797.09;;;9.46;100.00
60240;BME280;46102;39.012;-7.064;2024-03-29T02:02:57;96801.66;;;9.42;100.00
60240;BME280;46102;39.012;-7.064;2024-03-29T02:04:58;96800.47;;;9.11;100.00
60240;BME280;46102;39.012;-7.064;2024-03-29T02:07:00;96782.72;;;9.05;100.00
60240;BME280;46102;39.012;-7.064;2024-03-29T02:09:00;96794.69;;;9.00;100.00
60240;BME280;46102;39.012;-7.064;2024-03-29T02:11:02;96785.88;;;9.07;100.00
60240;BME280;46102;39.012;-7.064;2024-03-29T02:13:04;96788.81;;;9.14;100.00
60240;BME280;46102;39.012;-7.064;2024-03-29T02:15:05;96781.94;;;9.20;100.00
60240;BME280;46102;39.012;-7.064;2024-03-29T02:17:06;96780.44;;;9.23;100.00
60240;BME280;46102;39.012;-7.064;2024-03-29T02:19:07;96779.38;;;9.27;100.00
60240;BME280;46102;39.012;-7.064;2024-03-29T02:21:08;96770.75;;;9.25;100.00
60240;BME280;46102;39.012;-7.064;2024-03-29T02:23:11;96773.47;;;9.25;100.00
60240;BME280;46102;39.012;-7.064;2024-03-29T02:25:12;96767.66;;;9.27;100.00
60240;BME280;46102;39.012;-7.064;2024-03-29T02:27:13;96770.50;;;9.30;100.00
60240;BME280;46102;39.012;-7.064;2024-03-29T02:29:14;96765.53;;;9.20;100.00
60240;BME280;46102;39.012;-7.064;2024-03-29T02:31:15;96758.09;;;9.21;100.00
60240;BME280;46102;39.012;-7.064;2024-03-29T02:33:16;96760.03;;;9.04;100.00
60240;BME280;46102;39.012;-7.064;2024-03-29T02:35:17;96753.41;;;8.89;100.00
60240;BME280;46102;39.012;-7.064;2024-03-29T02:37:18;96752.59;;;8.89;100.00
60240;BME280;46102;39.012;-7.064;2024-03-29T02:39:19;96756.97;;;8.78;100.00
60240;BME280;46102;39.012;-7.064;2024-03-29T02:41:20;96761.66;;;8.77;100.00
60240;BME280;46102;39.012;-7.064;2024-03-29T02:43:20;96763.00;;;8.83;100.00
60240;BME280;46102;39.012;-7.064;2024-03-29T02:45:21;96743.69;;;8.92;100.00
60240;BME280;46102;39.012;-7.064;2024-03-29T02:47:22;96730.56;;;8.98;100.00
60240;BME280;46102;39.012;-7.064;2024-03-29T02:49:23;96723.13;;;8.98;100.00
60240;BME280;46102;39.012;-7.064;2024-03-29T02:51:24;96731.22;;;8.79;100.00
60240;BME280;46102;39.012;-7.064;2024-03-29T02:53:24;96730.19;;;8.83;100.00
60240;BME280;46102;39.012;-7.064;2024-03-29T02:55:25;96732.31;;;8.90;100.00
60240;BME280;46102;39.012;-7.064;2024-03-29T02:57:26;96723.41;;;8.93;100.00
60240;BME280;46102;39.012;-7.064;2024-03-29T02:59:28;96728.53;;;8.94;100.00
60240;BME280;46102;39.012;-7.064;2024-03-29T03:01:28;96728.97;;;8.96;100.00
60240;BME280;46102;39.012;-7.064;2024-03-29T03:03:29;96733.63;;;8.96;100.00
60240;BME280;46102;39.012;-7.064;2024-03-29T03:05:30;96734.44;;;8.96;100.00
60240;BME280;46102;39.012;-7.064;2024-03-29T03:07:31;96738.88;;;9.01;100.00
60240;BME280;46102;39.012;-7.064;2024-03-29T03:09:50;96733.75;;;9.00;100.00
60240;BME280;46102;39.012;-7.064;2024-03-29T03:12:23;96733.41;;;9.01;100.00
60240;BME280;46102;39.012;-7.064;2024-03-29T03:14:23;96725.97;;;9.02;100.00
60240;BME280;46102;39.012;-7.064;2024-03-29T03:16:24;96731.19;;;9.07;100.00
60240;BME280;46102;39.012;-7.064;2024-03-29T03:18:25;96720.69;;;9.09;100.00
60240;BME280;46102;39.012;-7.064;2024-03-29T03:20:26;96726.94;;;9.09;100.00
60240;BME280;46102;39.012;-7.064;2024-03-29T03:22:31;96726.88;;;9.06;100.00
60240;BME280;46102;39.012;-7.064;2024-03-29T03:24:31;96724.28;;;8.97;100.00
60240;BME280;46102;39.012;-7.064;2024-03-29T03:26:32;96729.66;;;8.93;100.00
60240;BME280;46102;39.012;-7.064;2024-03-29T03:28:33;96736.03;;;8.98;100.00
60240;BME280;46102;39.012;-7.064;2024-03-29T03:30:38;96735.25;;;8.97;100.00
60240;BME280;46102;39.012;-7.064;2024-03-29T03:32:39;96729.88;;;9.01;100.00
60240;BME280;46102;39.012;-7.064;2024-03-29T03:34:40;96729.88;;;9.01;100.00
60240;BME280;46102;39.012;-7.064;2024-03-29T03:36:41;96726.75;;;9.02;100.00
60240;BME280;46102;39.012;-7.064;2024-03-29T03:38:42;96740.53;;;9.06;100.00
60240;BME280;46102;39.012;-7.064;2024-03-29T03:40:42;96736.22;;;9.05;100.00
60240;BME280;46102;39.012;-7.064;2024-03-29T03:42:43;96731.56;;;9.05;100.00
60240;BME280;46102;39.012;-7.064;2024-03-29T03:44:44;96732.34;;;9.06;100.00
60240;BME280;46102;39.012;-7.064;2024-03-29T03:46:45;96720.59;;;9.05;100.00
60240;BME280;46102;39.012;-7.064;2024-03-29T03:48:45;96719.91;;;9.08;100.00
60240;BME280;46102;39.012;-7.064;2024-03-29T03:50:46;96714.88;;;9.10;100.00
60240;BME280;46102;39.012;-7.064;2024-03-29T03:52:47;96701.97;;;9.11;100.00
60240;BME280;46102;39.012;-7.064;2024-03-29T03:54:47;96701.47;;;9.05;100.00
60240;BME280;46102;39.012;-7.064;2024-03-29T03:56:48;96700.03;;;8.95;100.00
60240;BME280;46102;39.012;-7.064;2024-03-29T03:58:49;96708.16;;;8.92;100.00
60240;BME280;46102;39.012;-7.064;2024-03-29T04:00:50;96707.16;;;8.84;100.00
60240;BME280;46102;39.012;-7.064;2024-03-29T04:02:51;96694.84;;;8.62;100.00
60240;BME280;46102;39.012;-7.064;2024-03-29T04:04:52;96701.34;;;8.58;100.00
60240;BME280;46102;39.012;-7.064;2024-03-29T04:06:53;96708.16;;;8.64;100.00
60240;BME280;46102;39.012;-7.064;2024-03-29T04:08:54;96695.50;;;8.71;100.00
60240;BME280;46102;39.012;-7.064;2024-03-29T04:10:54;96692.66;;;8.68;100.00
60240;BME280;46102;39.012;-7.064;2024-03-29T04:12:55;96690.22;;;8.50;100.00
60240;BME280;46102;39.012;-7.064;2024-03-29T04:14:56;96679.44;;;8.42;100.00
60240;BME280;46102;39.012;-7.064;2024-03-29T04:16:56;96672.19;;;8.33;100.00
60240;BME280;46102;39.012;-7.064;2024-03-29T04:18:57;96671.28;;;8.29;100.00
60240;BME280;46102;39.012;-7.064;2024-03-29T04:21:00;96661.84;;;8.27;100.00
60240;BME280;46102;39.012;-7.064;2024-03-29T04:23:04;96665.25;;;8.24;100.00
60240;BME280;46102;39.012;-7.064;2024-03-29T04:25:05;96662.00;;;8.18;100.00
60240;BME280;46102;39.012;-7.064;2024-03-29T04:27:05;96667.72;;;8.01;100.00
60240;BME280;46102;39.012;-7.064;2024-03-29T04:29:06;96666.03;;;8.08;100.00
60240;BME280;46102;39.012;-7.064;2024-03-29T04:31:07;96666.09;;;8.12;100.00
60240;BME280;46102;39.012;-7.064;2024-03-29T04:33:08;96665.19;;;8.08;100.00
60240;BME280;46102;39.012;-7.064;2024-03-29T04:35:08;96662.69;;;8.15;100.00
60240;BME280;46102;39.012;-7.064;2024-03-29T04:37:09;96668.06;;;8.11;100.00
60240;BME280;46102;39.012;-7.064;2024-03-29T04:39:10;96669.28;;;8.14;100.00
60240;BME280;46102;39.012;-7.064;2024-03-29T04:41:10;96667.00;;;8.16;100.00
60240;BME280;46102;39.012;-7.064;2024-03-29T04:43:11;96672.59;;;8.20;100.00
60240;BME280;46102;39.012;-7.064;2024-03-29T04:45:12;96674.03;;;8.17;100.00
60240;BME280;46102;39.012;-7.064;2024-03-29T04:47:13;96678.13;;;8.23;100.00
60240;BME280;46102;39.012;-7.064;2024-03-29T04:49:13;96675.97;;;8.29;100.00
60240;BME280;46102;39.012;-7.064;2024-03-29T04:51:17;96662.94;;;8.38;100.00
60240;BME280;46102;39.012;-7.064;2024-03-29T04:53:17;96675.94;;;8.41;100.00
60240;BME280;46102;39.012;-7.064;2024-03-29T04:55:18;96660.44;;;8.45;100.00
60240;BME280;46102;39.012;-7.064;2024-03-29T04:57:19;96652.13;;;8.42;100.00
60240;BME280;46102;39.012;-7.064;2024-03-29T04:59:19;96664.28;;;8.44;100.00
60240;BME280;46102;39.012;-7.064;2024-03-29T05:01:21;96648.13;;;8.39;100.00
60240;BME280;46102;39.012;-7.064;2024-03-29T05:03:22;96648.63;;;8.29;100.00
60240;BME280;46102;39.012;-7.064;2024-03-29T05:05:23;96659.72;;;8.20;100.00
60240;BME280;46102;39.012;-7.064;2024-03-29T05:07:24;96668.00;;;8.24;100.00
60240;BME280;46102;39.012;-7.064;2024-03-29T05:09:25;96667.41;;;8.30;100.00
60240;BME280;46102;39.012;-7.064;2024-03-29T05:11:28;96667.50;;;8.34;100.00
60240;BME280;46102;39.012;-7.064;2024-03-29T05:13:29;96662.25;;;8.41;100.00
60240;BME280;46102;39.012;-7.064;2024-03-29T05:15:32;96674.66;;;8.39;100.00
60240;BME280;46102;39.012;-7.064;2024-03-29T05:17:32;96683.41;;;8.44;100.00
60240;BME280;46102;39.012;-7.064;2024-03-29T05:19:34;96696.84;;;8.49;100.00
60240;BME280;46102;39.012;-7.064;2024-03-29T05:21:35;96687.50;;;8.50;100.00
60240;BME280;46102;39.012;-7.064;2024-03-29T05:23:36;96698.88;;;8.52;100.00
60240;BME280;46102;39.012;-7.064;2024-03-29T05:25:36;96705.13;;;8.53;100.00
60240;BME280;46102;39.012;-7.064;2024-03-29T05:27:37;96709.81;;;8.52;100.00
60240;BME280;46102;39.012;-7.064;2024-03-29T05:29:38;96714.56;;;8.55;100.00
60240;BME280;46102;39.012;-7.064;2024-03-29T05:31:38;96712.28;;;8.58;100.00
60240;BME280;46102;39.012;-7.064;2024-03-29T05:33:43;96722.44;;;8.57;100.00
60240;BME280;46102;39.012;-7.064;2024-03-29T05:35:45;96719.16;;;8.51;100.00
60240;BME280;46102;39.012;-7.064;2024-03-29T05:37:46;96715.09;;;8.45;100.00
60240;BME280;46102;39.012;-7.064;2024-03-29T05:39:51;96712.59;;;8.40;100.00
60240;BME280;46102;39.012;-7.064;2024-03-29T05:41:59;96712.47;;;8.37;100.00
60240;BME280;46102;39.012;-7.064;2024-03-29T05:44:00;96709.88;;;8.40;100.00
60240;BME280;46102;39.012;-7.064;2024-03-29T05:46:02;96708.25;;;8.39;100.00
60240;BME280;46102;39.012;-7.064;2024-03-29T05:48:03;96708.38;;;8.43;100.00
60240;BME280;46102;39.012;-7.064;2024-03-29T05:50:03;96712.00;;;8.47;100.00
60240;BME280;46102;39.012;-7.064;2024-03-29T05:52:04;96707.78;;;8.49;100.00
60240;BME280;46102;39.012;-7.064;2024-03-29T05:54:05;96711.75;;;8.52;100.00
60240;BME280;46102;39.012;-7.064;2024-03-29T05:56:06;96714.03;;;8.50;100.00
60240;BME280;46102;39.012;-7.064;2024-03-29T05:58:08;96703.00;;;8.46;100.00
60240;BME280;46102;39.012;-7.064;2024-03-29T06:00:09;96710.19;;;8.39;100.00
60240;BME280;46102;39.012;-7.064;2024-03-29T06:02:10;96707.78;;;8.37;100.00
60240;BME280;46102;39.012;-7.064;2024-03-29T06:04:10;96717.16;;;8.36;100.00
60240;BME280;46102;39.012;-7.064;2024-03-29T06:06:19;96708.38;;;8.30;100.00
60240;BME280;46102;39.012;-7.064;2024-03-29T06:08:24;96710.88;;;8.36;100.00
60240;BME280;46102;39.012;-7.064;2024-03-29T06:10:27;96711.34;;;8.38;100.00
60240;BME280;46102;39.012;-7.064;2024-03-29T06:12:28;96724.19;;;8.37;100.00
60240;BME280;46102;39.012;-7.064;2024-03-29T06:14:28;96723.66;;;8.31;100.00
60240;BME280;46102;39.012;-7.064;2024-03-29T06:16:47;96724.09;;;8.33;100.00
60240;BME280;46102;39.012;-7.064;2024-03-29T06:19:07;96721.69;;;8.32;100.00
60240;BME280;46102;39.012;-7.064;2024-03-29T06:21:08;96714.41;;;8.36;100.00
60240;BME280;46102;39.012;-7.064;2024-03-29T06:23:09;96715.78;;;8.30;100.00
60240;BME280;46102;39.012;-7.064;2024-03-29T06:25:09;96704.16;;;8.33;100.00
60240;BME280;46102;39.012;-7.064;2024-03-29T06:27:10;96700.41;;;8.38;100.00
60240;BME280;46102;39.012;-7.064;2024-03-29T06:29:11;96701.22;;;8.26;100.00
60240;BME280;46102;39.012;-7.064;2024-03-29T06:31:12;96709.78;;;8.24;100.00
60240;BME280;46102;39.012;-7.064;2024-03-29T06:33:13;96697.38;;;8.14;100.00
60240;BME280;46102;39.012;-7.064;2024-03-29T06:35:14;96689.19;;;8.14;100.00
60240;BME280;46102;39.012;-7.064;2024-03-29T06:37:14;96690.94;;;8.07;100.00
60240;BME280;46102;39.012;-7.064;2024-03-29T06:39:15;96693.47;;;8.00;100.00
60240;BME280;46102;39.012;-7.064;2024-03-29T06:41:17;96685.72;;;8.02;100.00
60240;BME280;46102;39.012;-7.064;2024-03-29T06:43:18;96677.59;;;7.77;100.00
60240;BME280;46102;39.012;-7.064;2024-03-29T06:45:19;96679.50;;;7.77;100.00
60240;BME280;46102;39.012;-7.064;2024-03-29T06:47:19;96681.81;;;7.75;100.00
60240;BME280;46102;39.012;-7.064;2024-03-29T06:49:20;96682.13;;;7.73;100.00
60240;BME280;46102;39.012;-7.064;2024-03-29T06:51:21;96686.00;;;7.72;100.00
60240;BME280;46102;39.012;-7.064;2024-03-29T06:53:21;96682.13;;;7.73;100.00
60240;BME280;46102;39.012;-7.064;2024-03-29T06:55:22;96685.66;;;7.86;100.00
60240;BME280;46102;39.012;-7.064;2024-03-29T06:57:23;96688.13;;;7.91;100.00
60240;BME280;46102;39.012;-7.064;2024-03-29T06:59:26;96687.63;;;8.01;100.00
60240;BME280;46102;39.012;-7.064;2024-03-29T07:01:28;96693.34;;;8.08;100.00
60240;BME280;46102;39.012;-7.064;2024-03-29T07:03:29;96693.41;;;8.12;100.00
60240;BME280;46102;39.012;-7.064;2024-03-29T07:05:29;96692.84;;;8.19;100.00
60240;BME280;46102;39.012;-7.064;2024-03-29T07:07:30;96701.59;;;8.24;100.00
60240;BME280;46102;39.012;-7.064;2024-03-29T07:09:31;96695.09;;;8.29;100.00
60240;BME280;46102;39.012;-7.064;2024-03-29T07:11:31;96692.34;;;8.29;100.00
60240;BME280;46102;39.012;-7.064;2024-03-29T07:13:32;96697.13;;;8.32;100.00
60240;BME280;46102;39.012;-7.064;2024-03-29T07:15:33;96692.56;;;8.36;100.00
60240;BME280;46102;39.012;-7.064;2024-03-29T07:17:34;96692.31;;;8.41;100.00
60240;BME280;46102;39.012;-7.064;2024-03-29T07:19:34;96681.25;;;8.50;100.00
60240;BME280;46102;39.012;-7.064;2024-03-29T07:21:35;96686.44;;;8.55;100.00
60240;BME280;46102;39.012;-7.064;2024-03-29T07:23:36;96685.84;;;8.62;100.00
60240;BME280;46102;39.012;-7.064;2024-03-29T07:25:37;96692.03;;;8.59;100.00
60240;BME280;46102;39.012;-7.064;2024-03-29T07:27:38;96690.88;;;8.60;100.00
60240;BME280;46102;39.012;-7.064;2024-03-29T07:29:38;96692.56;;;8.64;100.00
60240;BME280;46102;39.012;-7.064;2024-03-29T07:31:40;96698.72;;;8.61;100.00
60240;BME280;46102;39.012;-7.064;2024-03-29T07:33:40;96696.34;;;8.60;100.00
60240;BME280;46102;39.012;-7.064;2024-03-29T07:35:42;96694.50;;;8.64;100.00
60240;BME280;46102;39.012;-7.064;2024-03-29T07:37:43;96690.53;;;8.61;100.00
60240;BME280;46102;39.012;-7.064;2024-03-29T07:39:48;96681.00;;;8.55;100.00
60240;BME280;46102;39.012;-7.064;2024-03-29T07:41:48;96690.88;;;8.60;100.00
60240;BME280;46102;39.012;-7.064;2024-03-29T07:43:55;96683.56;;;8.64;100.00
60240;BME280;46102;39.012;-7.064;2024-03-29T07:45:59;96682.84;;;8.67;100.00
60240;BME280;46102;39.012;-7.064;2024-03-29T07:48:00;96687.19;;;8.68;100.00
60240;BME280;46102;39.012;-7.064;2024-03-29T07:50:01;96692.22;;;8.66;100.00
60240;BME280;46102;39.012;-7.064;2024-03-29T07:52:03;96697.94;;;8.61;100.00
60240;BME280;46102;39.012;-7.064;2024-03-29T07:54:05;96700.31;;;8.62;100.00
60240;BME280;46102;39.012;-7.064;2024-03-29T07:56:06;96697.84;;;8.57;100.00
60240;BME280;46102;39.012;-7.064;2024-03-29T07:58:07;96688.13;;;8.60;100.00
60240;BME280;46102;39.012;-7.064;2024-03-29T08:00:09;96688.22;;;8.47;100.00
60240;BME280;46102;39.012;-7.064;2024-03-29T08:02:10;96695.63;;;8.34;100.00
60240;BME280;46102;39.012;-7.064;2024-03-29T08:04:12;96688.66;;;8.37;100.00
60240;BME280;46102;39.012;-7.064;2024-03-29T08:06:13;96699.41;;;8.30;100.00
60240;BME280;46102;39.012;-7.064;2024-03-29T08:08:13;96694.19;;;8.25;100.00
60240;BME280;46102;39.012;-7.064;2024-03-29T08:10:14;96688.47;;;8.30;100.00
60240;BME280;46102;39.012;-7.064;2024-03-29T08:12:15;96680.84;;;8.36;100.00
60240;BME280;46102;39.012;-7.064;2024-03-29T08:14:16;96678.09;;;8.36;100.00
60240;BME280;46102;39.012;-7.064;2024-03-29T08:16:16;96666.34;;;8.35;100.00
60240;BME280;46102;39.012;-7.064;2024-03-29T08:18:18;96661.78;;;8.39;100.00
60240;BME280;46102;39.012;-7.064;2024-03-29T08:20:18;96658.41;;;8.42;100.00
60240;BME280;46102;39.012;-7.064;2024-03-29T08:22:19;96662.38;;;8.45;100.00
60240;BME280;46102;39.012;-7.064;2024-03-29T08:24:21;96677.16;;;8.44;100.00
60240;BME280;46102;39.012;-7.064;2024-03-29T08:26:23;96667.50;;;8.34;100.00
60240;BME280;46102;39.012;-7.064;2024-03-29T08:28:25;96676.03;;;8.32;100.00
60240;BME280;46102;39.012;-7.064;2024-03-29T08:30:26;96666.59;;;8.30;100.00
60240;BME280;46102;39.012;-7.064;2024-03-29T08:32:29;96668.44;;;8.26;100.00
60240;BME280;46102;39.012;-7.064;2024-03-29T08:34:29;96668.69;;;8.21;100.00
60240;BME280;46102;39.012;-7.064;2024-03-29T08:36:35;96672.13;;;8.18;100.00
60240;BME280;46102;39.012;-7.064;2024-03-29T08:38:35;96668.16;;;8.15;100.00
60240;BME280;46102;39.012;-7.064;2024-03-29T08:40:36;96666.22;;;8.16;100.00
60240;BME280;46102;39.012;-7.064;2024-03-29T08:42:41;96671.19;;;8.26;100.00
60240;BME280;46102;39.012;-7.064;2024-03-29T08:44:41;96685.09;;;8.21;100.00
60240;BME280;46102;39.012;-7.064;2024-03-29T08:46:42;96683.34;;;8.41;100.00
60240;BME280;46102;39.012;-7.064;2024-03-29T08:48:43;96685.94;;;8.37;100.00
60240;BME280;46102;39.012;-7.064;2024-03-29T08:50:44;96699.06;;;8.31;100.00
60240;BME280;46102;39.012;-7.064;2024-03-29T08:52:45;96704.03;;;8.42;100.00
60240;BME280;46102;39.012;-7.064;2024-03-29T08:54:46;96699.03;;;8.44;100.00
60240;BME280;46102;39.012;-7.064;2024-03-29T08:56:47;96707.34;;;8.47;100.00
60240;BME280;46102;39.012;-7.064;2024-03-29T08:58:47;96712.88;;;8.51;100.00
60240;BME280;46102;39.012;-7.064;2024-03-29T09:00:55;96713.63;;;8.64;100.00
60240;BME280;46102;39.012;-7.064;2024-03-29T09:02:56;96722.84;;;8.71;100.00
60240;BME280;46102;39.012;-7.064;2024-03-29T09:04:56;96722.59;;;8.77;100.00
60240;BME280;46102;39.012;-7.064;2024-03-29T09:06:58;96733.38;;;8.85;100.00
60240;BME280;46102;39.012;-7.064;2024-03-29T09:08:59;96734.25;;;8.89;100.00
60240;BME280;46102;39.012;-7.064;2024-03-29T09:11:00;96732.50;;;8.97;100.00
60240;BME280;46102;39.012;-7.064;2024-03-29T09:13:01;96739.38;;;8.91;100.00
60240;BME280;46102;39.012;-7.064;2024-03-29T09:15:03;96754.38;;;8.97;100.00
60240;BME280;46102;39.012;-7.064;2024-03-29T09:17:09;96770.09;;;9.00;100.00
60240;BME280;46102;39.012;-7.064;2024-03-29T09:19:11;96769.41;;;9.03;100.00
60240;BME280;46102;39.012;-7.064;2024-03-29T09:21:12;96767.94;;;8.93;100.00
60240;BME280;46102;39.012;-7.064;2024-03-29T09:23:13;96753.00;;;9.03;100.00
60240;BME280;46102;39.012;-7.064;2024-03-29T09:25:17;96760.59;;;9.10;100.00
60240;BME280;46102;39.012;-7.064;2024-03-29T09:27:18;96772.59;;;9.05;100.00
60240;BME280;46102;39.012;-7.064;2024-03-29T09:29:19;96767.19;;;9.09;100.00
60240;BME280;46102;39.012;-7.064;2024-03-29T09:31:21;96763.41;;;9.13;100.00
60240;BME280;46102;39.012;-7.064;2024-03-29T09:33:22;96772.41;;;9.14;100.00
60240;BME280;46102;39.012;-7.064;2024-03-29T09:35:23;96773.66;;;9.16;100.00
60240;BME280;46102;39.012;-7.064;2024-03-29T09:37:23;96775.94;;;9.14;100.00
60240;BME280;46102;39.012;-7.064;2024-03-29T09:39:24;96774.44;;;9.17;100.00
60240;BME280;46102;39.012;-7.064;2024-03-29T09:41:25;96771.53;;;9.10;100.00
60240;BME280;46102;39.012;-7.064;2024-03-29T09:43:28;96767.97;;;9.09;100.00
60240;BME280;46102;39.012;-7.064;2024-03-29T09:45:34;96774.28;;;9.10;100.00
60240;BME280;46102;39.012;-7.064;2024-03-29T09:47:37;96779.03;;;9.13;100.00
60240;BME280;46102;39.012;-7.064;2024-03-29T09:49:38;96781.44;;;9.14;100.00
60240;BME280;46102;39.012;-7.064;2024-03-29T09:51:42;96782.72;;;9.21;100.00
60240;BME280;46102;39.012;-7.064;2024-03-29T09:53:43;96793.44;;;9.26;100.00
60240;BME280;46102;39.012;-7.064;2024-03-29T09:55:44;96788.22;;;9.36;100.00
60240;BME280;46102;39.012;-7.064;2024-03-29T09:57:45;96788.50;;;9.47;100.00
60240;BME280;46102;39.012;-7.064;2024-03-29T09:59:46;96789.28;;;9.48;100.00
60240;BME280;46102;39.012;-7.064;2024-03-29T10:01:48;96790.63;;;9.54;100.00
60240;BME280;46102;39.012;-7.064;2024-03-29T10:03:51;96789.06;;;9.53;100.00
60240;BME280;46102;39.012;-7.064;2024-03-29T10:05:53;96792.22;;;9.55;100.00
60240;BME280;46102;39.012;-7.064;2024-03-29T10:07:56;96794.69;;;9.60;100.00
60240;BME280;46102;39.012;-7.064;2024-03-29T10:10:00;96811.84;;;9.73;100.00
60240;BME280;46102;39.012;-7.064;2024-03-29T10:12:00;96816.94;;;9.90;100.00
60240;BME280;46102;39.012;-7.064;2024-03-29T10:14:01;96810.84;;;9.97;100.00
60240;BME280;46102;39.012;-7.064;2024-03-29T10:16:02;96811.47;;;9.74;100.00
60240;BME280;46102;39.012;-7.064;2024-03-29T10:18:03;96810.50;;;9.83;100.00
60240;BME280;46102;39.012;-7.064;2024-03-29T10:20:05;96818.63;;;9.95;100.00
60240;BME280;46102;39.012;-7.064;2024-03-29T10:22:06;96799.69;;;10.06;100.00
60240;BME280;46102;39.012;-7.064;2024-03-29T10:24:14;96809.69;;;10.14;100.00
60240;BME280;46102;39.012;-7.064;2024-03-29T10:26:17;96804.44;;;10.25;100.00
60240;BME280;46102;39.012;-7.064;2024-03-29T10:28:21;96799.66;;;10.37;100.00
60240;BME280;46102;39.012;-7.064;2024-03-29T10:30:24;96809.88;;;10.76;100.00
60240;BME280;46102;39.012;-7.064;2024-03-29T10:32:25;96810.88;;;10.87;100.00
60240;BME280;46102;39.012;-7.064;2024-03-29T10:34:26;96807.50;;;11.13;100.00
60240;BME280;46102;39.012;-7.064;2024-03-29T10:36:29;96812.88;;;11.29;100.00